Johnsburg, New York
Current Conditions -  °F | °C
As of 12:53 PM on Friday 21 Nov 2014 (Local Time) from KGFL Reporting Station
Few Clouds Few Clouds  
Wind Chill: 24°   Ceiling: Unl
Heat Index: 32°   Visibility: 10mi
Dew Point:   Wind: 10mph
Humidity: 35%   Direction: 310°NW
Pressure: 30.22"   Gusts: NA
Location:  43.62°N, 73.96°W
Report Text: KGFL 211753Z AUTO 31009KT 10SM FEW055 00/M14 A3022 RMK AO2 SLP244 T00001139 10000 21056 51019
Loading
Personal Weather Stations






























Interactive Weather Map New forecast layout! Learn more

10-Day Weather Forecast

Advertisements
Track Severe Weather on mobile